Terminal Aerodrome Forecast
Issued by NWS Twin Cities, MN

Home | Current Version | Previous Version | Text Only | Print | Product List | Glossary Off
Versions: 1 2 3 4 5 6 7 8 9 10 11 12 13 14 15 16 17 18

422
FTUS43 KMPX 261125
TAFSTC
TAF
KSTC 261125Z 2612/2712 05005KT 6SM -DZ BR OVC009
      TEMPO 2612/2615 3SM -RA BR OVC005
     FM261500 07006KT 3SM -RA BR OVC003
     FM261800 03006KT P6SM OVC007
     FM262200 01005KT P6SM OVC012
     FM270200 35005KT P6SM OVC020=

USA.gov is the U.S. government's official web portal to all federal, state and local government web resources and services.